Time;durP1;ratioP1;P1;durP2;ratioP2;P2;SDS_P1;SDS_P2;PMS_P1;PMS_P2;Temp;Humidity;BMP_temperature;BMP_pressure;BME280_temperature;BME280_humidity;BME280_pressure;Samples;Min_cycle;Max_cycle;Signal;HPM_P1;HPM_P2
2023/12/04 00:01:28;;;;;;;29.63;18.07;;;;;;;-2.92;100.00;100324.97;5020296;28;20237;-61
2023/12/04 00:03:53;;;;;;;30.20;18.07;;;;;;;-2.98;100.00;100315.72;5039460;28;20209;-60
2023/12/04 00:06:20;;;;;;;28.83;19.33;;;;;;;-3.10;100.00;100311.47;5037936;28;20189;-60
2023/12/04 00:08:45;;;;;;;30.47;18.03;;;;;;;-3.19;100.00;100318.13;5043419;28;20196;-59
2023/12/04 00:11:11;;;;;;;29.13;18.50;;;;;;;-3.30;100.00;100303.84;5039184;28;20212;-59
2023/12/04 00:13:37;;;;;;;33.17;18.23;;;;;;;-3.12;100.00;100298.03;5033135;28;20644;-58
2023/12/04 00:16:02;;;;;;;28.03;17.73;;;;;;;-3.12;100.00;100307.28;5031626;28;20278;-57
2023/12/04 00:18:28;;;;;;;28.10;17.93;;;;;;;-3.21;100.00;100305.56;5030403;28;20189;-59
2023/12/04 00:20:53;;;;;;;28.90;17.23;;;;;;;-3.14;100.00;100311.44;5027829;28;20239;-59
2023/12/04 00:23:18;;;;;;;24.17;17.20;;;;;;;-3.14;100.00;100307.28;5030167;28;20208;-59
2023/12/04 00:25:43;;;;;;;26.90;17.67;;;;;;;-3.16;100.00;100306.41;5025190;28;20621;-58
2023/12/04 00:28:09;;;;;;;27.77;18.00;;;;;;;-3.20;100.00;100287.13;5030558;28;20235;-59
2023/12/04 00:30:34;;;;;;;24.33;17.23;;;;;;;-3.31;100.00;100289.56;5000245;28;21024;-59
2023/12/04 00:32:59;;;;;;;26.23;17.57;;;;;;;-3.29;100.00;100289.56;5030472;28;20189;-58
2023/12/04 00:35:25;;;;;;;22.47;17.33;;;;;;;-3.23;100.00;100288.78;5031274;28;20213;-58
2023/12/04 00:37:50;;;;;;;23.53;16.40;;;;;;;-3.28;100.00;100284.53;5030727;28;20192;-58
2023/12/04 00:40:15;;;;;;;24.53;16.63;;;;;;;-3.38;100.00;100282.81;5022484;28;20227;-58
2023/12/04 00:42:41;;;;;;;25.10;17.57;;;;;;;-3.33;100.00;100272.78;5042993;28;20180;-59
2023/12/04 00:45:06;;;;;;;26.03;17.47;;;;;;;-3.43;100.00;100272.72;5031038;28;20194;-59
2023/12/04 00:47:32;;;;;;;25.50;17.80;;;;;;;-3.39;100.00;100262.69;5030699;28;20235;-58
2023/12/04 00:49:57;;;;;;;21.87;17.07;;;;;;;-3.37;100.00;100253.47;5031080;28;20189;-59
2023/12/04 00:52:23;;;;;;;22.97;16.33;;;;;;;-3.57;100.00;100247.50;5016471;28;20278;-58
2023/12/04 00:54:48;;;;;;;22.73;17.50;;;;;;;-3.53;100.00;100248.38;5021431;28;20932;-59
2023/12/04 00:57:13;;;;;;;22.90;17.23;;;;;;;-3.49;100.00;100254.25;5030442;28;20685;-58
2023/12/04 00:59:38;;;;;;;25.43;18.07;;;;;;;-3.57;100.00;100239.13;5024916;28;20184;-58
2023/12/04 01:02:07;;;;;;;27.27;17.50;;;;;;;-3.60;100.00;100249.16;5019792;28;20235;-58
2023/12/04 01:04:33;;;;;;;27.77;18.53;;;;;;;-3.52;100.00;100240.00;5031891;28;20243;-59
2023/12/04 01:06:58;;;;;;;24.60;17.67;;;;;;;-3.56;100.00;100243.31;5034027;28;20540;-58
2023/12/04 01:09:24;;;;;;;26.83;17.90;;;;;;;-3.54;100.00;100241.66;5034626;28;20179;-59
2023/12/04 01:11:53;;;;;;;27.47;17.73;;;;;;;-3.67;100.00;100245.78;5022953;28;20223;-60
2023/12/04 01:14:19;;;;;;;27.80;17.27;;;;;;;-3.58;100.00;100240.78;5032670;28;20228;-58
2023/12/04 01:16:44;;;;;;;38.27;18.57;;;;;;;-3.59;100.00;100238.28;5023733;28;20232;-58
2023/12/04 01:19:09;;;;;;;28.43;18.77;;;;;;;-3.65;100.00;100231.53;5033344;28;20573;-58
2023/12/04 01:21:35;;;;;;;34.13;17.97;;;;;;;-3.78;100.00;100230.63;5023063;28;20216;-59
2023/12/04 01:24:00;;;;;;;28.17;18.53;;;;;;;-3.84;100.00;100232.25;5034178;28;20199;-59
2023/12/04 01:26:25;;;;;;;29.60;18.30;;;;;;;-3.96;100.00;100233.84;5033283;28;20202;-59
2023/12/04 01:28:51;;;;;;;33.07;19.10;;;;;;;-3.96;100.00;100231.31;5034390;28;20194;-59
2023/12/04 01:31:16;;;;;;;31.50;17.77;;;;;;;-4.03;100.00;100227.09;5022695;28;20667;-59
2023/12/04 01:33:41;;;;;;;29.57;18.57;;;;;;;-3.98;100.00;100229.63;5033846;28;20668;-59
2023/12/04 01:36:07;;;;;;;28.70;18.37;;;;;;;-3.95;100.00;100227.97;5034079;28;20553;-59
2023/12/04 01:38:32;;;;;;;26.33;17.67;;;;;;;-3.89;100.00;100229.72;5033644;28;20251;-59
2023/12/04 01:40:57;;;;;;;28.53;17.00;;;;;;;-3.83;100.00;100233.91;5021931;28;20234;-58
2023/12/04 01:43:23;;;;;;;28.60;18.93;;;;;;;-3.76;100.00;100228.97;5033109;28;20727;-57
2023/12/04 01:45:49;;;;;;;29.73;17.90;;;;;;;-3.68;100.00;100225.63;5032710;28;20274;-59
2023/12/04 01:48:15;;;;;;;24.97;17.07;;;;;;;-3.77;100.00;100227.28;5033749;28;20185;-58
2023/12/04 01:50:40;;;;;;;30.03;18.37;;;;;;;-3.79;100.00;100233.97;5022503;28;20235;-58
2023/12/04 01:53:06;;;;;;;34.47;18.57;;;;;;;-3.73;100.00;100230.66;5023735;28;20595;-58
2023/12/04 01:55:33;;;;;;;30.83;19.40;;;;;;;-3.77;100.00;100228.94;5030213;28;20179;-59
2023/12/04 01:58:01;;;;;;;33.50;18.57;;;;;;;-3.94;100.00;100222.13;5033042;28;20194;-58
2023/12/04 02:00:26;;;;;;;27.63;18.53;;;;;;;-3.86;100.00;100227.19;5023010;28;20481;-58
2023/12/04 02:02:52;;;;;;;29.17;19.03;;;;;;;-3.96;100.00;100223.78;5032693;28;20460;-60
2023/12/04 02:05:18;;;;;;;30.83;18.53;;;;;;;-4.05;100.00;100218.72;5033796;28;20591;-59
2023/12/04 02:07:44;;;;;;;28.30;18.97;;;;;;;-4.08;100.00;100214.50;5032730;28;20211;-59
2023/12/04 02:10:10;;;;;;;31.57;18.53;;;;;;;-4.10;100.00;100212.81;5023134;28;20217;-59
2023/12/04 02:12:35;;;;;;;31.47;18.97;;;;;;;-3.96;100.00;100208.69;5032324;28;20202;-58
2023/12/04 02:15:01;;;;;;;40.20;19.90;;;;;;;-3.99;100.00;100200.34;5033315;28;20391;-59
2023/12/04 02:17:28;;;;;;;35.77;20.20;;;;;;;-3.89;100.00;100200.38;5033156;28;20179;-60
2023/12/04 02:19:54;;;;;;;32.33;17.97;;;;;;;-3.83;100.00;100201.25;5031929;28;20199;-58
2023/12/04 02:22:19;;;;;;;36.50;19.77;;;;;;;-3.78;100.00;100204.66;5020313;28;20231;-59
2023/12/04 02:24:47;;;;;;;28.73;17.77;;;;;;;-3.81;100.00;100192.88;5031309;28;20287;-61
2023/12/04 02:27:22;;;;;;;31.10;17.97;;;;;;;-3.66;100.00;100186.25;5033084;28;20208;-58
2023/12/04 02:29:52;;;;;;;34.23;17.50;;;;;;;-3.69;100.00;100188.78;5033202;28;20549;-59
2023/12/04 02:32:19;;;;;;;25.40;17.77;;;;;;;-3.72;100.00;100179.53;5022036;28;20484;-58
2023/12/04 02:34:47;;;;;;;27.10;18.13;;;;;;;-3.68;100.00;100177.84;5032610;28;20579;-58
2023/12/04 02:37:13;;;;;;;25.20;17.80;;;;;;;-3.68;100.00;100170.31;5032652;28;20418;-59
2023/12/04 02:39:39;;;;;;;25.53;16.77;;;;;;;-3.90;100.00;100165.19;5032414;28;20582;-58
2023/12/04 02:42:04;;;;;;;26.03;17.37;;;;;;;-3.93;100.00;100162.66;5007896;28;20623;-58
2023/12/04 02:44:29;;;;;;;27.60;17.77;;;;;;;-3.85;100.00;100162.72;5032676;28;20266;-58
2023/12/04 02:46:55;;;;;;;26.83;18.27;;;;;;;-3.96;100.00;100157.63;5032910;28;20523;-59
2023/12/04 02:49:20;;;;;;;24.37;17.63;;;;;;;-4.07;100.00;100150.88;5031145;28;20184;-58
2023/12/04 02:51:46;;;;;;;24.60;17.50;;;;;;;-3.97;100.00;100144.22;5021907;28;20298;-59
2023/12/04 02:54:11;;;;;;;26.33;18.33;;;;;;;-4.08;100.00;100138.25;5031911;28;20182;-59
2023/12/04 02:56:36;;;;;;;24.37;17.60;;;;;;;-4.02;100.00;100143.31;5030714;28;20175;-58
2023/12/04 02:59:02;;;;;;;25.77;17.70;;;;;;;-4.07;100.00;100138.31;5032680;28;20656;-58
2023/12/04 03:01:27;;;;;;;22.47;16.93;;;;;;;-3.99;100.00;100133.31;5021453;28;20249;-58
2023/12/04 03:03:52;;;;;;;21.83;16.20;;;;;;;-4.08;100.00;100130.72;5031867;28;20594;-59
2023/12/04 03:06:17;;;;;;;25.83;16.97;;;;;;;-4.05;100.00;100130.75;5032546;28;20179;-59
2023/12/04 03:08:43;;;;;;;24.87;17.83;;;;;;;-4.08;100.00;100124.06;5031457;28;20508;-58
2023/12/04 03:11:08;;;;;;;25.40;18.27;;;;;;;-4.07;100.00;100120.72;5031015;28;20226;-58
2023/12/04 03:13:34;;;;;;;23.63;16.90;;;;;;;-4.13;100.00;100112.28;5039489;28;20197;-58
2023/12/04 03:15:59;;;;;;;25.03;17.57;;;;;;;-4.04;100.00;100114.88;5032444;28;20645;-59
2023/12/04 03:18:25;;;;;;;23.60;17.63;;;;;;;-3.99;100.00;100117.41;5027975;28;20190;-61
2023/12/04 03:20:51;;;;;;;24.07;17.27;;;;;;;-3.91;100.00;100108.22;5019807;28;20217;-59
2023/12/04 03:23:16;;;;;;;24.73;17.93;;;;;;;-3.91;100.00;100111.59;5040796;28;20644;-58
2023/12/04 03:25:41;;;;;;;23.27;16.33;;;;;;;-3.97;100.00;100111.56;5032447;28;20193;-59
2023/12/04 03:28:08;;;;;;;25.33;17.63;;;;;;;-4.00;100.00;100101.47;5031017;28;20194;-59
2023/12/04 03:30:33;;;;;;;21.97;16.23;;;;;;;-3.96;100.00;100103.16;5021509;28;20472;-58
2023/12/04 03:32:58;;;;;;;25.57;19.07;;;;;;;-4.12;100.00;100097.25;5030888;28;20240;-59
2023/12/04 03:35:24;;;;;;;25.33;17.77;;;;;;;-4.11;100.00;100101.41;5031860;28;20198;-58
2023/12/04 03:37:52;;;;;;;24.90;18.43;;;;;;;-4.07;100.00;100097.25;5031305;28;20174;-60
2023/12/04 03:40:17;;;;;;;24.30;17.27;;;;;;;-4.10;100.00;100087.19;5023745;28;20214;-58
2023/12/04 03:42:42;;;;;;;23.63;16.57;;;;;;;-4.31;100.00;100077.88;5044053;28;20483;-59
2023/12/04 03:45:08;;;;;;;26.27;18.17;;;;;;;-4.26;100.00;100069.50;5031763;28;20209;-59
2023/12/04 03:47:33;;;;;;;26.13;18.40;;;;;;;-4.30;100.00;100077.03;5031114;28;20244;-59
2023/12/04 03:49:59;;;;;;;27.80;16.83;;;;;;;-4.34;100.00;100071.16;5031714;28;20201;-59
2023/12/04 03:52:24;;;;;;;25.30;18.17;;;;;;;-4.30;100.00;100067.81;5036871;28;20221;-59
2023/12/04 03:54:49;;;;;;;24.10;17.20;;;;;;;-4.25;100.00;100072.88;5030372;28;20193;-60
2023/12/04 03:57:14;;;;;;;23.63;17.50;;;;;;;-4.11;100.00;100072.94;5031290;28;20784;-59
2023/12/04 03:59:40;;;;;;;26.70;17.80;;;;;;;-4.14;100.00;100077.94;5030489;28;20212;-59
2023/12/04 04:02:05;;;;;;;23.90;17.37;;;;;;;-4.21;100.00;100072.88;5019355;28;20279;-59
2023/12/04 04:04:31;;;;;;;26.03;17.63;;;;;;;-4.22;100.00;100063.69;5031244;28;20197;-58
2023/12/04 04:06:57;;;;;;;26.33;18.00;;;;;;;-4.10;100.00;100077.13;5030915;28;20182;-58
2023/12/04 04:09:22;;;;;;;24.63;17.80;;;;;;;-4.12;100.00;100073.78;5031786;28;20403;-59
2023/12/04 04:11:47;;;;;;;23.97;17.67;;;;;;;-3.95;100.00;100074.69;5020186;28;20555;-58
2023/12/04 04:14:12;;;;;;;24.23;17.47;;;;;;;-3.95;100.00;100076.38;5031451;28;20656;-59
2023/12/04 04:16:38;;;;;;;25.07;17.37;;;;;;;-4.11;100.00;100068.75;5023349;28;20300;-58
2023/12/04 04:19:03;;;;;;;25.60;17.63;;;;;;;-4.06;100.00;100071.28;5030878;28;20266;-59
2023/12/04 04:21:28;;;;;;;23.73;17.27;;;;;;;-4.16;100.00;100082.13;5020157;28;20237;-60
2023/12/04 04:23:54;;;;;;;22.90;17.23;;;;;;;-4.00;100.00;100078.84;5030591;28;20689;-58
2023/12/04 04:26:19;;;;;;;26.23;17.90;;;;;;;-4.06;100.00;100074.66;5031481;28;20578;-58
2023/12/04 04:28:44;;;;;;;26.63;18.67;;;;;;;-4.16;100.00;100077.94;5030641;28;20209;-59
2023/12/04 04:31:10;;;;;;;25.13;17.23;;;;;;;-4.03;100.00;100072.97;4982754;28;20224;-59
2023/12/04 04:33:35;;;;;;;23.83;17.53;;;;;;;-3.93;100.00;100069.66;5002886;28;20187;-59
2023/12/04 04:36:00;;;;;;;22.97;16.33;;;;;;;-4.00;100.00;100071.31;5031179;28;20186;-59
2023/12/04 04:38:26;;;;;;;24.23;17.20;;;;;;;-3.97;100.00;100060.44;5030088;28;20227;-58
2023/12/04 04:40:52;;;;;;;22.37;16.47;;;;;;;-4.11;100.00;100051.16;5023942;28;20265;-59
2023/12/04 04:43:18;;;;;;;25.70;16.97;;;;;;;-4.11;100.00;100052.84;5023172;28;20220;-58
2023/12/04 04:45:43;;;;;;;24.57;17.77;;;;;;;-4.22;100.00;100051.13;5035286;28;20921;-58
2023/12/04 04:48:08;;;;;;;24.83;17.50;;;;;;;-4.28;100.00;100045.22;5034512;28;20225;-59
2023/12/04 04:50:34;;;;;;;22.47;16.63;;;;;;;-4.15;100.00;100043.63;5024489;28;21021;-61
2023/12/04 04:52:59;;;;;;;21.47;16.47;;;;;;;-4.08;100.00;100050.31;5033822;28;20190;-58
2023/12/04 04:55:24;;;;;;;22.77;16.33;;;;;;;-4.10;100.00;100050.31;5034743;28;20190;-59
2023/12/04 04:57:49;;;;;;;23.80;16.43;;;;;;;-4.02;100.00;100052.03;5034753;28;20266;-59
2023/12/04 05:00:16;;;;;;;22.67;15.93;;;;;;;-4.00;100.00;100048.69;5026095;28;20534;-59
2023/12/04 05:02:41;;;;;;;20.70;15.30;;;;;;;-3.81;100.00;100049.59;5048178;28;20182;-59
2023/12/04 05:05:07;;;;;;;20.53;15.63;;;;;;;-3.71;100.00;100049.66;5034419;28;20744;-59
2023/12/04 05:07:32;;;;;;;21.20;16.30;;;;;;;-3.81;100.00;100052.13;5034216;28;20188;-59
2023/12/04 05:09:57;;;;;;;21.83;16.00;;;;;;;-3.71;100.00;100044.63;5034339;28;20239;-59
2023/12/04 05:12:22;;;;;;;21.67;15.53;;;;;;;-3.67;100.00;100041.25;5040481;28;20221;-58
2023/12/04 05:14:48;;;;;;;22.13;16.73;;;;;;;-3.63;100.00;100038.78;5029124;28;20184;-58
2023/12/04 05:17:13;;;;;;;21.87;16.10;;;;;;;-3.80;100.00;100033.69;5033924;28;20194;-59
2023/12/04 05:19:38;;;;;;;22.67;15.47;;;;;;;-3.81;100.00;100021.13;5034283;28;20182;-59
2023/12/04 05:22:03;;;;;;;24.00;17.40;;;;;;;-3.83;100.00;100018.63;5023032;28;20680;-60
2023/12/04 05:24:29;;;;;;;22.87;17.13;;;;;;;-3.83;100.00;100015.25;5033919;28;20203;-59
2023/12/04 05:26:54;;;;;;;23.37;16.13;;;;;;;-3.89;100.00;100006.03;5033963;28;20575;-59
2023/12/04 05:29:19;;;;;;;22.90;16.80;;;;;;;-3.96;100.00;100009.34;5034625;28;20191;-59
2023/12/04 05:31:44;;;;;;;21.93;15.20;;;;;;;-4.11;100.00;100007.63;5023299;28;20233;-59
2023/12/04 05:34:10;;;;;;;23.17;16.97;;;;;;;-4.09;100.00;100011.81;5033797;28;20181;-59
2023/12/04 05:36:35;;;;;;;21.70;16.37;;;;;;;-4.05;100.00;100000.09;5033293;28;20229;-59
2023/12/04 05:39:00;;;;;;;22.63;15.57;;;;;;;-3.97;100.00;99998.47;5033834;28;20216;-59
2023/12/04 05:41:25;;;;;;;21.77;15.40;;;;;;;-4.07;100.00;99991.72;5014174;28;20265;-60
2023/12/04 05:43:51;;;;;;;25.97;16.77;;;;;;;-4.08;100.00;99995.06;5033491;28;20667;-61
2023/12/04 05:46:16;;;;;;;22.27;16.47;;;;;;;-4.07;100.00;99990.06;5023817;28;20170;-59
2023/12/04 05:48:42;;;;;;;20.30;16.43;;;;;;;-3.95;100.00;99991.75;5033209;28;20175;-59
2023/12/04 05:51:07;;;;;;;21.40;15.83;;;;;;;-3.95;100.00;99991.75;5018899;28;20533;-59
2023/12/04 05:53:32;;;;;;;23.47;16.00;;;;;;;-3.99;100.00;99987.56;5013755;28;20245;-59
2023/12/04 05:55:58;;;;;;;21.20;15.93;;;;;;;-3.90;100.00;99991.78;5033806;28;20652;-58
2023/12/04 05:58:23;;;;;;;21.93;16.73;;;;;;;-3.84;100.00;99980.91;5033297;28;20200;-60
2023/12/04 06:00:48;;;;;;;23.73;16.43;;;;;;;-3.77;100.00;99988.47;5016631;28;20223;-59
2023/12/04 06:03:13;;;;;;;22.30;15.97;;;;;;;-3.71;100.00;99991.81;5002659;28;20557;-58
2023/12/04 06:05:39;;;;;;;24.53;17.57;;;;;;;-3.71;100.00;99984.28;5032041;28;20216;-58
2023/12/04 06:08:04;;;;;;;22.70;15.63;;;;;;;-3.89;100.00;99988.44;5033278;28;20637;-59
2023/12/04 06:10:30;;;;;;;22.70;16.07;;;;;;;-3.90;100.00;99975.00;5017071;28;20243;-59
2023/12/04 06:12:55;;;;;;;23.33;17.60;;;;;;;-3.91;100.00;99975.88;5032395;28;20693;-59
2023/12/04 06:15:20;;;;;;;23.20;15.87;;;;;;;-3.89;100.00;99973.34;5033415;28;20254;-59
2023/12/04 06:17:45;;;;;;;21.53;16.30;;;;;;;-3.95;100.00;99963.28;5033001;28;20205;-60
2023/12/04 06:20:11;;;;;;;23.83;16.93;;;;;;;-3.85;100.00;99964.16;5023982;28;20673;-59
2023/12/04 06:22:36;;;;;;;23.83;16.77;;;;;;;-3.97;100.00;99965.81;5047324;28;20186;-59
2023/12/04 06:25:02;;;;;;;22.83;16.47;;;;;;;-3.96;100.00;99977.50;5033456;28;20622;-58
2023/12/04 06:27:28;;;;;;;22.80;16.13;;;;;;;-3.90;100.00;99969.16;5032920;28;20537;-59
2023/12/04 06:29:53;;;;;;;26.00;18.10;;;;;;;-3.77;100.00;99973.38;5032867;28;20227;-58
2023/12/04 06:32:19;;;;;;;23.83;17.60;;;;;;;-3.71;100.00;99961.66;5019369;28;20218;-59
2023/12/04 06:34:45;;;;;;;22.83;16.03;;;;;;;-3.90;100.00;99954.91;5032666;28;20211;-58
2023/12/04 06:37:11;;;;;;;23.00;16.77;;;;;;;-3.96;100.00;99949.88;5032551;28;20241;-59
2023/12/04 06:39:38;;;;;;;22.20;16.23;;;;;;;-3.97;100.00;99934.78;5032630;28;20229;-60
2023/12/04 06:42:05;;;;;;;23.50;17.37;;;;;;;-3.85;100.00;99944.88;5038238;28;20473;-59
2023/12/04 06:44:31;;;;;;;25.67;16.87;;;;;;;-3.86;100.00;99945.69;5031285;28;21083;-58
2023/12/04 06:47:01;;;;;;;25.23;17.03;;;;;;;-3.70;100.00;99940.72;5032342;28;20499;-59
2023/12/04 06:49:32;;;;;;;28.00;17.90;;;;;;;-3.79;100.00;99931.50;5031492;28;20210;-59
2023/12/04 06:51:58;;;;;;;27.03;17.70;;;;;;;-3.85;100.00;99923.94;5024093;28;20774;-59
2023/12/04 06:54:23;;;;;;;24.53;17.23;;;;;;;-3.87;100.00;99905.50;5034301;28;20428;-59
2023/12/04 06:56:48;;;;;;;25.20;18.27;;;;;;;-3.92;100.00;99903.81;5031349;28;20182;-59
2023/12/04 06:59:14;;;;;;;22.97;16.70;;;;;;;-3.90;100.00;99918.91;5032240;28;20300;-58
2023/12/04 07:01:39;;;;;;;23.67;16.73;;;;;;;-3.63;100.00;99917.25;5020826;28;20226;-60
2023/12/04 07:04:09;;;;;;;24.67;17.43;;;;;;;-3.72;100.00;99908.03;5028276;28;20197;-60
2023/12/04 07:06:36;;;;;;;23.33;16.47;;;;;;;-3.59;100.00;99909.69;5031254;28;20264;-59
2023/12/04 07:09:02;;;;;;;24.53;17.03;;;;;;;-3.44;100.00;99911.38;5032407;28;20417;-59
2023/12/04 07:11:27;;;;;;;22.80;16.50;;;;;;;-3.30;100.00;99906.34;5010647;28;20976;-59
2023/12/04 07:13:52;;;;;;;21.00;16.53;;;;;;;-3.41;100.00;99896.31;5025858;28;20210;-59
2023/12/04 07:16:18;;;;;;;22.17;16.07;;;;;;;-3.36;100.00;99897.97;5047381;28;20184;-61
2023/12/04 07:18:43;;;;;;;22.77;15.53;;;;;;;-3.56;100.00;99896.28;5031414;28;20183;-58
2023/12/04 07:21:09;;;;;;;22.40;16.53;;;;;;;-3.54;100.00;99894.63;5030780;28;20264;-60
2023/12/04 07:23:35;;;;;;;23.90;16.97;;;;;;;-3.60;100.00;99884.56;5038318;28;20221;-59
2023/12/04 07:26:00;;;;;;;27.67;16.80;;;;;;;-3.49;100.00;99882.06;5031995;28;20791;-60
2023/12/04 07:28:25;;;;;;;24.20;16.73;;;;;;;-3.61;100.00;99885.41;5031135;28;20531;-60
2023/12/04 07:30:51;;;;;;;22.03;15.33;;;;;;;-3.68;100.00;99892.09;5014251;28;20329;-58
2023/12/04 07:33:16;;;;;;;29.87;17.17;;;;;;;-3.55;100.00;99887.91;5018919;28;20192;-58
2023/12/04 07:35:41;;;;;;;23.20;16.20;;;;;;;-3.60;100.00;99887.94;5029874;28;20206;-60
2023/12/04 07:38:07;;;;;;;26.33;16.23;;;;;;;-3.65;100.00;99892.09;5029842;28;20640;-60
2023/12/04 07:40:32;;;;;;;21.80;15.67;;;;;;;-3.61;100.00;99890.44;5022964;28;20244;-60
2023/12/04 07:42:57;;;;;;;20.80;15.50;;;;;;;-3.63;100.00;99889.59;5031827;28;20177;-60
2023/12/04 07:45:23;;;;;;;21.60;16.20;;;;;;;-3.52;100.00;99894.63;5031544;28;20549;-59
2023/12/04 07:47:50;;;;;;;22.53;16.03;;;;;;;-3.47;100.00;99895.47;5031031;28;20173;-59
2023/12/04 07:50:15;;;;;;;21.80;15.93;;;;;;;-3.36;100.00;99893.78;5020618;28;20413;-60
2023/12/04 07:52:41;;;;;;;22.33;16.80;;;;;;;-3.42;100.00;99893.78;5030278;28;20421;-60
2023/12/04 07:55:06;;;;;;;21.03;15.43;;;;;;;-3.29;100.00;99890.41;5031466;28;20648;-58
2023/12/04 07:57:32;;;;;;;22.57;16.07;;;;;;;-3.36;100.00;99887.91;5030457;28;20186;-59
2023/12/04 07:59:57;;;;;;;21.07;15.67;;;;;;;-3.47;100.00;99878.69;5031543;28;20202;-59
2023/12/04 08:02:22;;;;;;;20.47;15.47;;;;;;;-3.40;100.00;99887.06;5014435;28;20226;-60
2023/12/04 08:04:47;;;;;;;24.10;16.53;;;;;;;-3.39;100.00;99886.22;5031385;28;20619;-59
2023/12/04 08:07:13;;;;;;;27.70;15.47;;;;;;;-3.32;100.00;99889.59;5030872;28;20192;-59
2023/12/04 08:09:39;;;;;;;21.07;16.20;;;;;;;-3.32;100.00;99877.00;5031436;28;20182;-59
2023/12/04 08:12:04;;;;;;;22.57;15.83;;;;;;;-3.17;100.00;99879.50;5018677;28;20234;-59
2023/12/04 08:14:29;;;;;;;20.37;14.87;;;;;;;-2.97;100.00;99869.38;5030439;28;20548;-58
2023/12/04 08:16:55;;;;;;;21.70;16.07;;;;;;;-3.04;100.00;99870.22;5030070;28;20204;-60
2023/12/04 08:19:20;;;;;;;20.97;15.43;;;;;;;-2.99;100.00;99862.66;5030037;28;20282;-58
2023/12/04 08:21:46;;;;;;;21.27;15.50;;;;;;;-3.10;100.00;99852.63;5033549;28;20808;-61
2023/12/04 08:24:11;;;;;;;20.23;15.20;;;;;;;-2.96;100.00;99853.44;5032334;28;20550;-59
2023/12/04 08:26:36;;;;;;;20.67;16.23;;;;;;;-2.89;100.00;99851.75;5029450;28;20187;-59
2023/12/04 08:29:02;;;;;;;21.00;15.80;;;;;;;-2.98;100.00;99846.72;5031064;28;20177;-59
2023/12/04 08:31:28;;;;;;;20.20;14.50;;;;;;;-2.90;100.00;99857.63;4984988;28;20580;-59
2023/12/04 08:33:53;;;;;;;20.87;15.37;;;;;;;-2.95;100.00;99846.75;5019580;28;20187;-59
2023/12/04 08:36:19;;;;;;;20.00;15.20;;;;;;;-2.83;100.00;99825.69;5030879;28;20216;-58
2023/12/04 08:38:44;;;;;;;21.57;14.43;;;;;;;-2.64;100.00;99831.50;5029657;28;20554;-58
2023/12/04 08:41:09;;;;;;;21.07;15.20;;;;;;;-2.36;100.00;99823.78;5017049;28;20692;-58
2023/12/04 08:43:34;;;;;;;20.03;15.87;;;;;;;-2.05;100.00;99821.91;5030481;28;20205;-59
2023/12/04 08:46:00;;;;;;;20.07;14.70;;;;;;;-2.28;100.00;99817.03;5030292;28;20182;-59
2023/12/04 08:48:25;;;;;;;20.13;15.93;;;;;;;-2.05;100.00;99816.84;5030008;28;20198;-59
2023/12/04 08:50:51;;;;;;;23.30;14.77;;;;;;;-2.14;100.00;99810.19;5026766;28;20227;-58
2023/12/04 08:53:16;;;;;;;17.60;13.37;;;;;;;-2.33;100.00;99816.19;5039582;28;20276;-58
2023/12/04 08:55:41;;;;;;;19.97;14.90;;;;;;;-2.22;100.00;99813.63;5030874;28;20582;-59
2023/12/04 08:58:06;;;;;;;21.93;15.60;;;;;;;-2.15;100.00;99810.22;5030517;28;20701;-59
2023/12/04 09:00:32;;;;;;;18.53;14.30;;;;;;;-2.20;100.00;99807.72;5018647;28;20238;-58
2023/12/04 09:02:58;;;;;;;21.83;14.27;;;;;;;-2.31;100.00;99812.84;5029600;28;20186;-58
2023/12/04 09:05:23;;;;;;;18.80;13.53;;;;;;;-2.41;100.00;99812.91;5030840;28;20185;-60
2023/12/04 09:07:48;;;;;;;19.83;13.87;;;;;;;-2.37;100.00;99820.44;5030498;28;20543;-59
2023/12/04 09:10:14;;;;;;;20.00;14.63;;;;;;;-2.24;100.00;99810.28;5020515;28;20268;-58
2023/12/04 09:12:39;;;;;;;29.03;13.93;;;;;;;-2.20;100.00;99807.72;5029264;28;20668;-59
2023/12/04 09:15:05;;;;;;;18.87;14.17;;;;;;;-2.24;100.00;99823.72;5030661;28;20271;-59
2023/12/04 09:17:31;;;;;;;16.90;13.40;;;;;;;-2.21;100.00;99826.19;5029855;28;20211;-58
2023/12/04 09:19:56;;;;;;;16.77;13.27;;;;;;;-2.25;100.00;99817.00;5030170;28;20181;-58
2023/12/04 09:22:21;;;;;;;20.43;14.13;;;;;;;-2.22;100.00;99814.47;5018555;28;20221;-58
2023/12/04 09:24:46;;;;;;;20.07;14.73;;;;;;;-2.12;100.00;99807.69;5029906;28;20232;-59
2023/12/04 09:27:12;;;;;;;18.87;15.17;;;;;;;-2.29;100.00;99797.72;5033272;28;20236;-59
2023/12/04 09:29:37;;;;;;;19.70;14.37;;;;;;;-2.36;100.00;99818.75;5034146;28;20272;-58
2023/12/04 09:32:03;;;;;;;17.20;13.63;;;;;;;-2.36;100.00;99816.25;5016564;28;20224;-58
2023/12/04 09:34:28;;;;;;;18.17;13.83;;;;;;;-2.13;100.00;99818.63;5033419;28;20178;-58
2023/12/04 09:36:53;;;;;;;18.90;14.27;;;;;;;-2.07;100.00;99812.69;5033096;28;20185;-58
2023/12/04 09:39:19;;;;;;;28.80;14.27;;;;;;;-2.25;100.00;99819.53;5033242;28;20551;-59
2023/12/04 09:41:46;;;;;;;21.53;14.73;;;;;;;-2.05;100.00;99814.34;5016607;28;20242;-58
2023/12/04 09:44:12;;;;;;;22.33;14.00;;;;;;;-1.93;100.00;99823.50;5027328;28;20194;-58
2023/12/04 09:46:38;;;;;;;21.60;14.63;;;;;;;-2.06;100.00;99820.25;5032959;28;20180;-58
2023/12/04 09:49:04;;;;;;;23.80;14.73;;;;;;;-2.28;100.00;99807.78;5033526;28;20266;-58
2023/12/04 09:51:29;;;;;;;19.13;13.67;;;;;;;-1.98;100.00;99813.44;5025365;28;20224;-59
2023/12/04 09:53:56;;;;;;;19.40;14.33;;;;;;;-2.05;100.00;99811.00;5025034;28;20211;-59
2023/12/04 09:56:23;;;;;;;18.47;13.53;;;;;;;-2.15;100.00;99802.66;5033020;28;20216;-59
2023/12/04 09:58:55;;;;;;;19.57;14.63;;;;;;;-2.03;100.00;99795.00;5032418;28;20186;-58
2023/12/04 10:01:21;;;;;;;19.37;14.63;;;;;;;-2.18;100.00;99790.09;5014513;28;20345;-58
2023/12/04 10:03:46;;;;;;;21.87;16.20;;;;;;;-2.03;100.00;99781.56;5028051;28;20206;-58
2023/12/04 10:06:17;;;;;;;22.30;16.13;;;;;;;-1.90;100.00;99780.59;5032951;28;20185;-58
2023/12/04 10:08:44;;;;;;;18.40;15.10;;;;;;;-1.91;100.00;99780.63;5032466;28;20209;-58
2023/12/04 10:11:09;;;;;;;22.43;13.10;;;;;;;-1.93;100.00;99783.16;5031487;28;20229;-58
2023/12/04 10:13:35;;;;;;;19.30;14.40;;;;;;;-1.91;100.00;99778.09;5039824;28;20186;-59
2023/12/04 10:16:00;;;;;;;20.63;13.53;;;;;;;-2.00;100.00;99782.38;5033495;28;20229;-58
2023/12/04 10:18:30;;;;;;;21.37;15.30;;;;;;;-2.05;100.00;99779.03;5031454;28;20200;-58
2023/12/04 10:20:56;;;;;;;19.97;13.90;;;;;;;-1.92;100.00;99787.38;5029953;28;20217;-58
2023/12/04 10:23:22;;;;;;;19.70;13.80;;;;;;;-1.56;100.00;99794.59;5040102;28;20252;-58
2023/12/04 10:25:50;;;;;;;20.13;14.13;;;;;;;-1.58;100.00;99782.00;5032518;28;20519;-60
2023/12/04 10:28:17;;;;;;;19.03;15.00;;;;;;;-1.17;100.00;99779.91;5032409;28;20178;-57
2023/12/04 10:30:42;;;;;;;18.27;13.40;;;;;;;-0.96;100.00;99775.44;5018498;28;20707;-58
2023/12/04 10:33:08;;;;;;;20.97;14.73;;;;;;;-0.95;100.00;99767.03;5032125;28;20194;-58
2023/12/04 10:35:38;;;;;;;31.37;20.40;;;;;;;-1.20;100.00;99769.84;5032242;28;20212;-58
2023/12/04 10:38:05;;;;;;;17.57;12.90;;;;;;;-1.20;100.00;99762.28;5031240;28;20187;-58
2023/12/04 10:40:35;;;;;;;18.83;13.40;;;;;;;-1.34;100.00;99759.88;5019022;28;20230;-58
2023/12/04 10:43:15;;;;;;;23.70;14.77;;;;;;;-1.38;100.00;99758.25;5031429;28;20167;-58
2023/12/04 10:45:42;;;;;;;21.07;13.63;;;;;;;-1.50;100.00;99757.53;5032196;28;20186;-58
2023/12/04 10:48:08;;;;;;;22.07;13.77;;;;;;;-1.61;100.00;99744.22;5030434;28;20182;-60
2023/12/04 10:50:38;;;;;;;19.27;13.00;;;;;;;-1.65;100.00;99740.88;5020773;28;20246;-58
2023/12/04 10:53:04;;;;;;;20.37;14.50;;;;;;;-1.88;100.00;99731.00;5031513;28;20178;-59
2023/12/04 10:55:31;;;;;;;22.83;14.27;;;;;;;-1.83;100.00;99729.28;5032407;28;20265;-57
2023/12/04 10:57:56;;;;;;;25.03;16.33;;;;;;;-2.02;100.00;99736.19;5032197;28;20182;-57